Time;durP1;ratioP1;P1;durP2;ratioP2;P2;SDS_P1;SDS_P2;PMS_P1;PMS_P2;Temp;Humidity;BMP_temperature;BMP_pressure;BME280_temperature;BME280_humidity;BME280_pressure;Samples;Min_cycle;Max_cycle;Signal;HPM_P1;HPM_P2
2021/09/27 00:01:30;;;;;;;;;;;;;;;;;;5115487;28;19927;-69
2021/09/27 00:03:56;;;;;;;;;;;;;;;;;;5114506;28;20014;-69
2021/09/27 00:06:23;;;;;;;;;;;;;;;;;;5114489;28;19928;-69
2021/09/27 00:08:49;;;;;;;;;;;;;;;;;;5114360;28;19928;-69
2021/09/27 00:11:15;;;;;;;;;;;;;;;;;;5114390;28;19930;-69
2021/09/27 00:13:42;;;;;;;;;;;;;;;;;;5114360;28;19924;-70
2021/09/27 00:16:08;;;;;;;;;;;;;;;;;;5114119;28;19923;-69
2021/09/27 00:18:34;;;;;;;;;;;;;;;;;;5114351;28;19930;-69
2021/09/27 00:21:01;;;;;;;;;;;;;;;;;;5114170;28;19928;-71
2021/09/27 00:23:27;;;;;;;;;;;;;;;;;;5114136;28;19924;-70
2021/09/27 00:25:53;;;;;;;;;;;;;;;;;;5113768;28;19924;-70
2021/09/27 00:28:19;;;;;;;;;;;;;;;;;;5113940;28;20305;-70
2021/09/27 00:30:47;;;;;;;;;;;;;;;;;;5113670;28;19931;-70
2021/09/27 00:33:13;;;;;;;;;;;;;;;;;;5113906;28;20386;-70
2021/09/27 00:35:40;;;;;;;;;;;;;;;;;;5113869;28;19923;-69
2021/09/27 00:38:06;;;;;;;;;;;;;;;;;;5114047;28;19924;-70
2021/09/27 00:40:32;;;;;;;;;;;;;;;;;;5113713;28;20392;-70
2021/09/27 00:42:58;;;;;;;;;;;;;;;;;;5113686;28;19928;-70
2021/09/27 00:45:25;;;;;;;;;;;;;;;;;;5114004;28;19924;-70
2021/09/27 00:47:51;;;;;;;;;;;;;;;;;;5113363;28;19928;-70
2021/09/27 00:50:17;;;;;;;;;;;;;;;;;;5113945;28;19945;-70
2021/09/27 00:52:44;;;;;;;;;;;;;;;;;;5113561;28;19924;-69
2021/09/27 00:55:10;;;;;;;;;;;;;;;;;;5113843;28;19924;-70
2021/09/27 00:57:36;;;;;;;;;;;;;;;;;;5113650;28;20271;-70
2021/09/27 01:00:04;;;;;;;;;;;;;;;;;;5113161;28;19928;-70
2021/09/27 01:02:30;;;;;;;;;;;;;;;;;;5113737;28;19927;-69
2021/09/27 01:04:56;;;;;;;;;;;;;;;;;;5113379;28;19924;-69
2021/09/27 01:07:23;;;;;;;;;;;;;;;;;;5113155;28;19924;-70
2021/09/27 01:09:49;;;;;;;;;;;;;;;;;;5113358;28;19924;-69
2021/09/27 01:12:15;;;;;;;;;;;;;;;;;;5113315;28;20400;-70
2021/09/27 01:14:42;;;;;;;;;;;;;;;;;;5112471;28;19928;-70
2021/09/27 01:17:08;;;;;;;;;;;;;;;;;;5113463;28;19923;-69
2021/09/27 01:19:34;;;;;;;;;;;;;;;;;;5113037;28;19931;-69
2021/09/27 01:22:01;;;;;;;;;;;;;;;;;;5113090;27;20040;-70
2021/09/27 01:24:27;;;;;;;;;;;;;;;;;;5113062;28;20422;-70
2021/09/27 01:26:54;;;;;;;;;;;;;;;;;;5113013;28;19965;-70
2021/09/27 01:29:21;;;;;;;;;;;;;;;;;;5113367;28;19924;-70
2021/09/27 01:31:47;;;;;;;;;;;;;;;;;;5113088;28;20018;-70
2021/09/27 01:34:13;;;;;;;;;;;;;;;;;;5112885;28;19923;-69
2021/09/27 01:36:40;;;;;;;;;;;;;;;;;;5112968;28;19924;-70
2021/09/27 01:39:06;;;;;;;;;;;;;;;;;;5113192;28;19946;-70
2021/09/27 01:41:32;;;;;;;;;;;;;;;;;;5113158;28;19928;-69
2021/09/27 01:43:58;;;;;;;;;;;;;;;;;;5112850;28;19927;-69
2021/09/27 01:46:25;;;;;;;;;;;;;;;;;;5113183;28;19928;-69
2021/09/27 01:48:51;;;;;;;;;;;;;;;;;;5112786;28;19923;-70
2021/09/27 01:51:17;;;;;;;;;;;;;;;;;;5112936;28;20490;-69
2021/09/27 01:53:44;;;;;;;;;;;;;;;;;;5112609;28;19924;-70
2021/09/27 01:56:10;;;;;;;;;;;;;;;;;;5113194;28;19947;-70
2021/09/27 01:58:36;;;;;;;;;;;;;;;;;;5112616;28;19924;-69
2021/09/27 02:01:02;;;;;;;;;;;;;;;;;;5112737;28;19927;-69
2021/09/27 02:03:29;;;;;;;;;;;;;;;;;;5112698;28;19930;-69
2021/09/27 02:05:55;;;;;;;;;;;;;;;;;;5112436;28;19930;-69
2021/09/27 02:08:22;;;;;;;;;;;;;;;;;;5112808;28;19931;-69
2021/09/27 02:10:48;;;;;;;;;;;;;;;;;;5112310;28;19924;-69
2021/09/27 02:13:15;;;;;;;;;;;;;;;;;;5113397;28;19931;-69
2021/09/27 02:15:42;;;;;;;;;;;;;;;;;;5112209;28;19930;-69
2021/09/27 02:18:08;;;;;;;;;;;;;;;;;;5112974;28;19930;-69
2021/09/27 02:20:34;;;;;;;;;;;;;;;;;;5112557;28;19930;-69
2021/09/27 02:23:01;;;;;;;;;;;;;;;;;;5112396;28;19931;-69
2021/09/27 02:25:31;;;;;;;;;;;;;;;;;;5112506;28;19946;-69
2021/09/27 02:27:57;;;;;;;;;;;;;;;;;;5116227;28;19927;-69
2021/09/27 02:30:24;;;;;;;;;;;;;;;;;;5116308;28;19923;-70
2021/09/27 02:32:50;;;;;;;;;;;;;;;;;;5116327;28;19924;-70
2021/09/27 02:35:16;;;;;;;;;;;;;;;;;;5116019;28;20282;-70
2021/09/27 02:37:43;;;;;;;;;;;;;;;;;;5115863;28;19934;-70
2021/09/27 02:40:09;;;;;;;;;;;;;;;;;;5116505;28;19923;-70
2021/09/27 02:42:35;;;;;;;;;;;;;;;;;;5116185;28;20361;-70
2021/09/27 02:45:02;;;;;;;;;;;;;;;;;;5115723;28;19931;-70
2021/09/27 02:47:28;;;;;;;;;;;;;;;;;;5116139;28;19924;-70
2021/09/27 02:49:57;;;;;;;;;;;;;;;;;;5115784;28;19930;-70
2021/09/27 02:52:24;;;;;;;;;;;;;;;;;;5115885;28;19928;-69
2021/09/27 02:54:50;;;;;;;;;;;;;;;;;;5115877;28;19924;-70
2021/09/27 02:57:16;;;;;;;;;;;;;;;;;;5115996;28;19930;-70
2021/09/27 02:59:42;;;;;;;;;;;;;;;;;;5115536;28;19924;-70
2021/09/27 03:02:09;;;;;;;;;;;;;;;;;;5116014;28;19924;-70
2021/09/27 03:04:35;;;;;;;;;;;;;;;;;;5115736;28;20412;-70
2021/09/27 03:07:01;;;;;;;;;;;;;;;;;;5115312;28;19931;-70
2021/09/27 03:09:28;;;;;;;;;;;;;;;;;;5115714;28;19923;-70
2021/09/27 03:11:55;;;;;;;;;;;;;;;;;;5115571;28;19924;-71
2021/09/27 03:14:21;;;;;;;;;;;;;;;;;;5115868;28;19932;-70
2021/09/27 03:16:48;;;;;;;;;;;;;;;;;;5115391;28;19924;-70
2021/09/27 03:19:14;;;;;;;;;;;;;;;;;;5115383;28;19928;-69
2021/09/27 03:21:40;;;;;;;;;;;;;;;;;;5115435;28;19924;-69
2021/09/27 03:24:06;;;;;;;;;;;;;;;;;;5115376;28;20389;-70
2021/09/27 03:26:33;;;;;;;;;;;;;;;;;;5115335;28;19931;-70
2021/09/27 03:29:01;;;;;;;;;;;;;;;;;;5114149;28;21344;-70
2021/09/27 03:31:28;;;;;;;;;;;;;;;;;;5115626;28;19973;-70
2021/09/27 03:33:54;;;;;;;;;;;;;;;;;;5114827;28;20446;-70
2021/09/27 03:36:20;;;;;;;;;;;;;;;;;;5115265;27;19973;-70
2021/09/27 03:38:47;;;;;;;;;;;;;;;;;;5114326;28;19927;-70
2021/09/27 03:41:13;;;;;;;;;;;;;;;;;;5114962;28;19970;-70
2021/09/27 03:43:39;;;;;;;;;;;;;;;;;;5114643;27;20402;-68
2021/09/27 03:46:06;;;;;;;;;;;;;;;;;;5114936;28;20006;-69
2021/09/27 03:48:32;;;;;;;;;;;;;;;;;;5115043;28;19923;-69
2021/09/27 03:50:58;;;;;;;;;;;;;;;;;;5115139;28;20602;-69
2021/09/27 03:53:25;;;;;;;;;;;;;;;;;;5114605;28;19928;-69
2021/09/27 03:55:51;;;;;;;;;;;;;;;;;;5114750;28;19924;-69
2021/09/27 03:58:17;;;;;;;;;;;;;;;;;;5114893;28;19959;-69
2021/09/27 04:00:44;;;;;;;;;;;;;;;;;;5114692;28;20366;-69
2021/09/27 04:03:10;;;;;;;;;;;;;;;;;;5120246;28;19924;-69
2021/09/27 04:05:37;;;;;;;;;;;;;;;;;;5124712;28;19924;-73
2021/09/27 04:08:07;;;;;;;;;;;;;;;;;;5129305;28;19963;-72
2021/09/27 04:10:33;;;;;;;;;;;;;;;;;;5114718;28;20024;-71
2021/09/27 04:12:59;;;;;;;;;;;;;;;;;;5114405;28;19965;-72
2021/09/27 04:15:26;;;;;;;;;;;;;;;;;;5114512;28;19924;-70
2021/09/27 04:17:52;;;;;;;;;;;;;;;;;;5113996;28;19924;-71
2021/09/27 04:20:18;;;;;;;;;;;;;;;;;;5114807;28;19923;-71
2021/09/27 04:22:45;;;;;;;;;;;;;;;;;;5114238;28;19934;-71
2021/09/27 04:25:11;;;;;;;;;;;;;;;;;;5113918;28;19924;-71
2021/09/27 04:27:37;;;;;;;;;;;;;;;;;;5113895;28;19923;-72
2021/09/27 04:30:04;;;;;;;;;;;;;;;;;;5114229;28;19923;-71
2021/09/27 04:32:30;;;;;;;;;;;;;;;;;;5114402;28;19931;-71
2021/09/27 04:34:57;;;;;;;;;;;;;;;;;;5113978;28;19928;-71
2021/09/27 04:37:23;;;;;;;;;;;;;;;;;;5113990;28;19931;-72
2021/09/27 04:39:49;;;;;;;;;;;;;;;;;;5113853;28;19950;-70
2021/09/27 04:42:16;;;;;;;;;;;;;;;;;;5113561;28;19931;-70
2021/09/27 04:44:42;;;;;;;;;;;;;;;;;;5113751;28;19924;-71
2021/09/27 04:47:08;;;;;;;;;;;;;;;;;;5113587;28;20305;-70
2021/09/27 04:49:35;;;;;;;;;;;;;;;;;;5112882;28;19934;-71
2021/09/27 04:52:04;;;;;;;;;;;;;;;;;;5113531;28;19930;-73
2021/09/27 04:54:30;;;;;;;;;;;;;;;;;;5113396;28;19931;-71
2021/09/27 04:56:56;;;;;;;;;;;;;;;;;;5113545;28;19924;-72
2021/09/27 04:59:23;;;;;;;;;;;;;;;;;;5113338;28;20293;-71
2021/09/27 05:01:49;;;;;;;;;;;;;;;;;;5113172;28;19934;-71
2021/09/27 05:04:15;;;;;;;;;;;;;;;;;;5113593;28;19936;-71
2021/09/27 05:06:42;;;;;;;;;;;;;;;;;;5113508;28;19924;-72
2021/09/27 05:09:08;;;;;;;;;;;;;;;;;;5113485;28;20288;-71
2021/09/27 05:11:34;;;;;;;;;;;;;;;;;;5113210;28;19924;-73
2021/09/27 05:14:00;;;;;;;;;;;;;;;;;;5112861;28;20022;-73
2021/09/27 05:16:27;;;;;;;;;;;;;;;;;;5113352;28;19950;-73
2021/09/27 05:18:53;;;;;;;;;;;;;;;;;;5112928;28;20396;-73
2021/09/27 05:21:19;;;;;;;;;;;;;;;;;;5113275;28;19924;-73
2021/09/27 05:23:47;;;;;;;;;;;;;;;;;;5113093;28;19928;-73
2021/09/27 05:26:13;;;;;;;;;;;;;;;;;;5113079;28;19924;-73
2021/09/27 05:28:39;;;;;;;;;;;;;;;;;;5112893;28;20385;-74
2021/09/27 05:31:06;;;;;;;;;;;;;;;;;;5113043;28;19934;-74
2021/09/27 05:33:32;;;;;;;;;;;;;;;;;;5113401;28;19924;-72
2021/09/27 05:35:58;;;;;;;;;;;;;;;;;;5112666;28;20380;-72
2021/09/27 05:38:25;;;;;;;;;;;;;;;;;;5113150;28;19924;-72
2021/09/27 05:40:51;;;;;;;;;;;;;;;;;;5112849;28;20297;-73
2021/09/27 05:43:17;;;;;;;;;;;;;;;;;;5113057;28;19923;-73
2021/09/27 05:45:44;;;;;;;;;;;;;;;;;;5112863;28;19924;-72
2021/09/27 05:48:10;;;;;;;;;;;;;;;;;;5112758;28;20285;-72
2021/09/27 05:50:36;;;;;;;;;;;;;;;;;;5112776;28;19928;-72
2021/09/27 05:53:02;;;;;;;;;;;;;;;;;;5112922;28;19923;-73
2021/09/27 05:55:29;;;;;;;;;;;;;;;;;;5112887;28;20393;-73
2021/09/27 05:57:57;;;;;;;;;;;;;;;;;;5112514;28;19924;-72
2021/09/27 06:00:24;;;;;;;;;;;;;;;;;;5114468;28;19971;-72
2021/09/27 06:02:55;;;;;;;;;;;;;;;;;;5116414;28;19923;-72
2021/09/27 06:05:22;;;;;;;;;;;;;;;;;;5117324;28;19924;-72
2021/09/27 06:07:48;;;;;;;;;;;;;;;;;;5116526;28;20259;-73
2021/09/27 06:10:14;;;;;;;;;;;;;;;;;;5116638;28;19924;-73
2021/09/27 06:12:41;;;;;;;;;;;;;;;;;;5116623;28;19930;-73
2021/09/27 06:15:07;;;;;;;;;;;;;;;;;;5116997;28;20293;-74
2021/09/27 06:17:33;;;;;;;;;;;;;;;;;;5116589;28;19923;-73
2021/09/27 06:20:00;;;;;;;;;;;;;;;;;;5116110;28;19934;-73
2021/09/27 06:22:26;;;;;;;;;;;;;;;;;;5116838;28;19928;-73
2021/09/27 06:24:52;;;;;;;;;;;;;;;;;;5116031;28;20400;-73
2021/09/27 06:27:18;;;;;;;;;;;;;;;;;;5116698;28;19924;-73
2021/09/27 06:29:45;;;;;;;;;;;;;;;;;;5116246;28;19931;-73
2021/09/27 06:32:11;;;;;;;;;;;;;;;;;;5116321;28;19931;-73
2021/09/27 06:34:37;;;;;;;;;;;;;;;;;;5116343;28;20219;-72
2021/09/27 06:37:04;;;;;;;;;;;;;;;;;;5116550;28;19973;-72
2021/09/27 06:39:30;;;;;;;;;;;;;;;;;;5116344;28;19931;-72
2021/09/27 06:41:56;;;;;;;;;;;;;;;;;;5116010;28;19935;-72
2021/09/27 06:44:24;;;;;;;;;;;;;;;;;;5116385;28;19927;-72
2021/09/27 06:46:50;;;;;;;;;;;;;;;;;;5115973;28;20361;-73
2021/09/27 06:49:16;;;;;;;;;;;;;;;;;;5115850;28;19935;-72
2021/09/27 06:51:43;;;;;;;;;;;;;;;;;;5115983;28;19931;-73
2021/09/27 06:54:09;;;;;;;;;;;;;;;;;;5116316;28;19924;-72
2021/09/27 06:56:35;;;;;;;;;;;;;;;;;;5115875;28;19949;-73
2021/09/27 06:59:01;;;;;;;;;;;;;;;;;;5116103;28;19935;-72
2021/09/27 07:01:28;;;;;;;;;;;;;;;;;;5115609;28;20400;-72
2021/09/27 07:03:54;;;;;;;;;;;;;;;;;;5115853;28;19923;-72
2021/09/27 07:06:20;;;;;;;;;;;;;;;;;;5116274;28;19924;-72
2021/09/27 07:08:47;;;;;;;;;;;;;;;;;;5115664;28;19949;-72
2021/09/27 07:11:13;;;;;;;;;;;;;;;;;;5115880;28;19978;-73
2021/09/27 07:13:39;;;;;;;;;;;;;;;;;;5114626;28;20413;-73
2021/09/27 07:16:06;;;;;;;;;;;;;;;;;;5115578;28;19931;-73
2021/09/27 07:18:32;;;;;;;;;;;;;;;;;;5115641;28;19931;-73
2021/09/27 07:20:59;;;;;;;;;;;;;;;;;;5115206;28;20386;-73
2021/09/27 07:23:25;;;;;;;;;;;;;;;;;;5115843;28;19924;-74
2021/09/27 07:25:52;;;;;;;;;;;;;;;;;;5115035;28;19935;-74
2021/09/27 07:28:19;;;;;;;;;;;;;;;;;;5115570;28;20014;-72
2021/09/27 07:30:48;;;;;;;;;;;;;;;;;;5115279;28;20286;-72
2021/09/27 07:33:14;;;;;;;;;;;;;;;;;;5115132;28;19924;-72
2021/09/27 07:35:40;;;;;;;;;;;;;;;;;;5115076;28;19923;-72
2021/09/27 07:38:06;;;;;;;;;;;;;;;;;;5115297;28;19928;-72
2021/09/27 07:40:33;;;;;;;;;;;;;;;;;;5115153;28;19927;-73
2021/09/27 07:42:59;;;;;;;;;;;;;;;;;;5114763;28;19930;-73
2021/09/27 07:45:25;;;;;;;;;;;;;;;;;;5115217;28;19930;-73
2021/09/27 07:47:52;;;;;;;;;;;;;;;;;;5114642;28;20385;-73
2021/09/27 07:50:18;;;;;;;;;;;;;;;;;;5114592;28;19923;-73
2021/09/27 07:52:44;;;;;;;;;;;;;;;;;;5114795;28;19970;-73
2021/09/27 07:55:11;;;;;;;;;;;;;;;;;;5114717;28;19935;-73
2021/09/27 07:57:37;;;;;;;;;;;;;;;;;;5114789;28;19927;-73
2021/09/27 08:00:03;;;;;;;;;;;;;;;;;;5114936;28;19930;-72
2021/09/27 08:02:30;;;;;;;;;;;;;;;;;;5114594;28;20309;-73
2021/09/27 08:04:57;;;;;;;;;;;;;;;;;;5114633;28;19967;-73
2021/09/27 08:07:23;;;;;;;;;;;;;;;;;;5116539;28;19930;-73
2021/09/27 08:09:49;;;;;;;;;;;;;;;;;;5131742;28;19946;-72
2021/09/27 08:12:15;;;;;;;;;;;;;;;;;;5137679;28;20002;-72
2021/09/27 08:14:45;;;;;;;;;;;;;;;;;;5117847;28;20354;-73
2021/09/27 08:17:11;;;;;;;;;;;;;;;;;;5114774;28;19953;-74
2021/09/27 08:19:41;;;;;;;;;;;;;;;;;;5114199;28;20396;-74
2021/09/27 08:22:08;;;;;;;;;;;;;;;;;;5114419;28;19924;-72
2021/09/27 08:24:34;;;;;;;;;;;;;;;;;;5114142;28;19924;-72
2021/09/27 08:27:00;;;;;;;;;;;;;;;;;;5113961;28;19935;-72
2021/09/27 08:29:27;;;;;;;;;;;;;;;;;;5114326;28;19934;-72
2021/09/27 08:31:53;;;;;;;;;;;;;;;;;;5113681;28;20285;-72
2021/09/27 08:34:19;;;;;;;;;;;;;;;;;;5113829;28;19931;-72
2021/09/27 08:36:48;;;;;;;;;;;;;;;;;;5114174;28;19930;-72
2021/09/27 08:39:15;;;;;;;;;;;;;;;;;;5114225;28;19928;-73
2021/09/27 08:41:41;;;;;;;;;;;;;;;;;;5113580;28;19923;-72
2021/09/27 08:44:07;;;;;;;;;;;;;;;;;;5114072;28;19935;-74
2021/09/27 08:46:34;;;;;;;;;;;;;;;;;;5113836;28;19924;-74
2021/09/27 08:49:00;;;;;;;;;;;;;;;;;;5113585;28;19928;-73
2021/09/27 08:51:26;;;;;;;;;;;;;;;;;;5113575;28;19930;-73
2021/09/27 08:53:54;;;;;;;;;;;;;;;;;;5113626;28;19931;-73
2021/09/27 08:56:21;;;;;;;;;;;;;;;;;;5113867;28;19931;-73
2021/09/27 08:58:48;;;;;;;;;;;;;;;;;;5113411;28;20373;-73
2021/09/27 09:01:14;;;;;;;;;;;;;;;;;;5113527;28;19975;-73
2021/09/27 09:03:40;;;;;;;;;;;;;;;;;;5113378;28;19931;-74
2021/09/27 09:06:07;;;;;;;;;;;;;;;;;;5113709;28;19947;-73
2021/09/27 09:08:33;;;;;;;;;;;;;;;;;;5113347;28;19931;-74
2021/09/27 09:10:59;;;;;;;;;;;;;;;;;;5113297;28;19935;-74
2021/09/27 09:13:25;;;;;;;;;;;;;;;;;;5113672;28;19923;-73
2021/09/27 09:15:52;;;;;;;;;;;;;;;;;;5112998;28;20402;-73
2021/09/27 09:18:18;;;;;;;;;;;;;;;;;;5113217;28;19935;-73
2021/09/27 09:20:44;;;;;;;;;;;;;;;;;;5113066;28;19931;-73
2021/09/27 09:23:11;;;;;;;;;;;;;;;;;;5113131;28;20369;-73
2021/09/27 09:25:37;;;;;;;;;;;;;;;;;;5112922;28;19924;-73
2021/09/27 09:28:03;;;;;;;;;;;;;;;;;;5113334;28;19957;-73
2021/09/27 09:30:30;;;;;;;;;;;;;;;;;;5112859;28;20420;-73
2021/09/27 09:32:56;;;;;;;;;;;;;;;;;;5112946;28;19923;-73
2021/09/27 09:35:22;;;;;;;;;;;;;;;;;;5112809;28;19930;-73
2021/09/27 09:37:50;;;;;;;;;;;;;;;;;;5113008;28;19927;-73
2021/09/27 09:40:17;;;;;;;;;;;;;;;;;;5112771;28;19928;-72
2021/09/27 09:42:43;;;;;;;;;;;;;;;;;;5113016;28;19930;-73
2021/09/27 09:45:09;;;;;;;;;;;;;;;;;;5113240;28;20286;-73
2021/09/27 09:47:36;;;;;;;;;;;;;;;;;;5112959;28;19924;-73
2021/09/27 09:50:02;;;;;;;;;;;;;;;;;;5112705;28;19924;-74
2021/09/27 09:52:28;;;;;;;;;;;;;;;;;;5113051;28;20286;-73
2021/09/27 09:54:55;;;;;;;;;;;;;;;;;;5112641;28;19924;-73
2021/09/27 09:57:21;;;;;;;;;;;;;;;;;;5112997;28;19923;-73
2021/09/27 09:59:48;;;;;;;;;;;;;;;;;;5112714;28;19927;-73
2021/09/27 10:02:14;;;;;;;;;;;;;;;;;;5112498;28;20306;-73
2021/09/27 10:04:40;;;;;;;;;;;;;;;;;;5112584;28;19931;-73
2021/09/27 10:07:08;;;;;;;;;;;;;;;;;;5113456;28;19931;-73
2021/09/27 10:09:34;;;;;;;;;;;;;;;;;;5112551;28;19930;-73
2021/09/27 10:12:00;;;;;;;;;;;;;;;;;;5112826;28;19943;-73
2021/09/27 10:14:27;;;;;;;;;;;;;;;;;;5112595;28;20377;-73
2021/09/27 10:16:53;;;;;;;;;;;;;;;;;;5112332;28;19924;-73
2021/09/27 10:19:19;;;;;;;;;;;;;;;;;;5112577;28;20298;-73
2021/09/27 10:21:46;;;;;;;;;;;;;;;;;;5112216;28;19923;-73
2021/09/27 10:24:12;;;;;;;;;;;;;;;;;;5112899;28;19924;-73
2021/09/27 10:26:38;;;;;;;;;;;;;;;;;;5112136;28;19924;-73
2021/09/27 10:29:05;;;;;;;;;;;;;;;;;;5112511;28;20289;-73
2021/09/27 10:31:31;;;;;;;;;;;;;;;;;;5112399;28;19930;-73
2021/09/27 10:33:57;;;;;;;;;;;;;;;;;;5112460;28;19924;-73
2021/09/27 10:36:23;;;;;;;;;;;;;;;;;;5112707;28;19924;-72
2021/09/27 10:38:52;;;;;;;;;;;;;;;;;;5112084;28;19943;-72
2021/09/27 10:41:18;;;;;;;;;;;;;;;;;;5112462;28;19928;-72
2021/09/27 10:43:45;;;;;;;;;;;;;;;;;;5112290;28;19924;-72
2021/09/27 10:46:11;;;;;;;;;;;;;;;;;;5112280;28;19977;-72
2021/09/27 10:48:37;;;;;;;;;;;;;;;;;;5115662;28;19930;-72
2021/09/27 10:51:04;;;;;;;;;;;;;;;;;;5116223;28;19963;-72
2021/09/27 10:53:30;;;;;;;;;;;;;;;;;;5116296;28;19950;-72
2021/09/27 10:55:57;;;;;;;;;;;;;;;;;;5115485;28;20339;-72
2021/09/27 10:58:23;;;;;;;;;;;;;;;;;;5115883;28;19938;-72
2021/09/27 11:00:49;;;;;;;;;;;;;;;;;;5115942;28;19934;-72
2021/09/27 11:03:16;;;;;;;;;;;;;;;;;;5115966;28;19974;-72
2021/09/27 11:05:42;;;;;;;;;;;;;;;;;;5115780;28;19936;-72
2021/09/27 11:08:08;;;;;;;;;;;;;;;;;;5116050;28;19946;-72
2021/09/27 11:10:35;;;;;;;;;;;;;;;;;;5115379;28;20369;-71
2021/09/27 11:13:01;;;;;;;;;;;;;;;;;;5115676;28;19935;-71
2021/09/27 11:15:27;;;;;;;;;;;;;;;;;;5115748;28;19946;-71
2021/09/27 11:17:54;;;;;;;;;;;;;;;;;;5114962;28;19931;-71
2021/09/27 11:20:20;;;;;;;;;;;;;;;;;;5115634;28;19939;-71
2021/09/27 11:22:54;;;;;;;;;;;;;;;;;;5115384;28;19924;-71
2021/09/27 11:25:20;;;;;;;;;;;;;;;;;;5115415;28;19932;-72
2021/09/27 11:27:46;;;;;;;;;;;;;;;;;;5114949;28;20022;-72
2021/09/27 11:30:13;;;;;;;;;;;;;;;;;;5115171;28;19924;-72
2021/09/27 11:32:39;;;;;;;;;;;;;;;;;;5114969;28;20285;-72
2021/09/27 11:35:05;;;;;;;;;;;;;;;;;;5115192;28;19931;-72
2021/09/27 11:37:32;;;;;;;;;;;;;;;;;;5115116;28;19959;-72
2021/09/27 11:39:58;;;;;;;;;;;;;;;;;;5115133;28;19927;-72
2021/09/27 11:42:25;;;;;;;;;;;;;;;;;;5115132;28;20374;-72
2021/09/27 11:44:51;;;;;;;;;;;;;;;;;;5114703;28;19924;-72
2021/09/27 11:47:17;;;;;;;;;;;;;;;;;;5115503;28;19931;-72
2021/09/27 11:49:44;;;;;;;;;;;;;;;;;;5114934;28;19950;-72
2021/09/27 11:52:10;;;;;;;;;;;;;;;;;;5114746;28;20401;-71
2021/09/27 11:54:36;;;;;;;;;;;;;;;;;;5115097;28;19923;-72
2021/09/27 11:57:03;;;;;;;;;;;;;;;;;;5115107;28;19923;-72
2021/09/27 11:59:29;;;;;;;;;;;;;;;;;;5114239;28;20352;-72
2021/09/27 12:01:55;;;;;;;;;;;;;;;;;;5114439;28;19930;-72
2021/09/27 12:04:21;;;;;;;;;;;;;;;;;;5114924;28;19924;-72
2021/09/27 12:06:48;;;;;;;;;;;;;;;;;;5114334;28;19924;-72
2021/09/27 12:09:14;;;;;;;;;;;;;;;;;;5114714;28;19923;-72
2021/09/27 12:11:40;;;;;;;;;;;;;;;;;;5114798;28;19928;-72
2021/09/27 12:14:07;;;;;;;;;;;;;;;;;;5114681;28;19924;-72
2021/09/27 12:16:33;;;;;;;;;;;;;;;;;;5114724;28;19924;-72
2021/09/27 12:19:01;;;;;;;;;;;;;;;;;;5114762;28;19934;-72
2021/09/27 12:21:28;;;;;;;;;;;;;;;;;;5123841;28;19934;-72
2021/09/27 12:23:54;;;;;;;;;;;;;;;;;;5123759;28;19930;-72
2021/09/27 12:26:20;;;;;;;;;;;;;;;;;;5118752;28;19928;-72
2021/09/27 12:28:47;;;;;;;;;;;;;;;;;;5113819;28;20400;-72
2021/09/27 12:31:13;;;;;;;;;;;;;;;;;;5113987;28;19923;-72
2021/09/27 12:33:39;;;;;;;;;;;;;;;;;;5114300;28;19924;-71
2021/09/27 12:36:05;;;;;;;;;;;;;;;;;;5113897;28;20388;-72
2021/09/27 12:38:33;;;;;;;;;;;;;;;;;;5114285;28;19930;-71
2021/09/27 12:40:59;;;;;;;;;;;;;;;;;;5113601;28;19978;-71
2021/09/27 12:43:25;;;;;;;;;;;;;;;;;;5114174;28;19924;-72
2021/09/27 12:45:52;;;;;;;;;;;;;;;;;;5113858;28;19928;-72
2021/09/27 12:48:18;;;;;;;;;;;;;;;;;;5113780;28;19930;-72
2021/09/27 12:50:44;;;;;;;;;;;;;;;;;;5113350;28;19930;-72
2021/09/27 12:53:11;;;;;;;;;;;;;;;;;;5114204;28;19928;-71
2021/09/27 12:55:37;;;;;;;;;;;;;;;;;;5113601;28;20289;-72
2021/09/27 12:58:03;;;;;;;;;;;;;;;;;;5113586;28;19930;-71
2021/09/27 13:00:30;;;;;;;;;;;;;;;;;;5113737;28;19923;-72
2021/09/27 13:02:56;;;;;;;;;;;;;;;;;;5113555;28;19924;-71
2021/09/27 13:05:22;;;;;;;;;;;;;;;;;;5113538;28;19931;-72
2021/09/27 13:07:48;;;;;;;;;;;;;;;;;;5113504;28;19924;-75
2021/09/27 13:10:15;;;;;;;;;;;;;;;;;;5112754;28;19924;-72
2021/09/27 13:12:41;;;;;;;;;;;;;;;;;;5113111;28;19927;-73
2021/09/27 13:15:07;;;;;;;;;;;;;;;;;;5113531;28;19932;-71
2021/09/27 13:17:34;;;;;;;;;;;;;;;;;;5113480;28;19923;-73
2021/09/27 13:20:01;;;;;;;;;;;;;;;;;;5112969;28;20355;-73
2021/09/27 13:22:27;;;;;;;;;;;;;;;;;;5113344;28;20427;-73
2021/09/27 13:24:53;;;;;;;;;;;;;;;;;;5112841;28;19924;-73
2021/09/27 13:27:20;;;;;;;;;;;;;;;;;;5113420;28;20414;-73
2021/09/27 13:29:48;;;;;;;;;;;;;;;;;;5112876;28;20496;-73
2021/09/27 13:32:14;;;;;;;;;;;;;;;;;;5112907;28;19928;-72
2021/09/27 13:34:43;;;;;;;;;;;;;;;;;;5113057;28;19924;-72
2021/09/27 13:37:09;;;;;;;;;;;;;;;;;;5112870;28;19923;-73
2021/09/27 13:39:40;;;;;;;;;;;;;;;;;;5113182;28;19930;-72
2021/09/27 13:42:08;;;;;;;;;;;;;;;;;;5112933;28;19943;-72
2021/09/27 13:44:34;;;;;;;;;;;;;;;;;;5113175;28;19963;-72
2021/09/27 13:47:00;;;;;;;;;;;;;;;;;;5112630;28;20408;-73
2021/09/27 13:49:27;;;;;;;;;;;;;;;;;;5113103;28;20011;-72
2021/09/27 13:51:53;;;;;;;;;;;;;;;;;;5112785;28;20369;-73
2021/09/27 13:54:19;;;;;;;;;;;;;;;;;;5112897;28;19930;-72
2021/09/27 13:56:45;;;;;;;;;;;;;;;;;;5112830;28;19924;-72
2021/09/27 13:59:12;;;;;;;;;;;;;;;;;;5112976;28;19950;-72
2021/09/27 14:01:38;;;;;;;;;;;;;;;;;;5112764;28;19924;-73
2021/09/27 14:04:04;;;;;;;;;;;;;;;;;;5112931;28;19924;-72
2021/09/27 14:06:32;;;;;;;;;;;;;;;;;;5113363;28;19924;-72
2021/09/27 14:08:58;;;;;;;;;;;;;;;;;;5124295;28;19928;-71
2021/09/27 14:11:25;;;;;;;;;;;;;;;;;;5114105;28;19923;-72
2021/09/27 14:13:51;;;;;;;;;;;;;;;;;;5112464;28;20370;-72
2021/09/27 14:16:17;;;;;;;;;;;;;;;;;;5112515;28;19930;-72
2021/09/27 14:18:44;;;;;;;;;;;;;;;;;;5112308;28;19924;-71
2021/09/27 14:21:11;;;;;;;;;;;;;;;;;;5113618;28;19966;-72
2021/09/27 14:23:37;;;;;;;;;;;;;;;;;;5116953;28;20019;-73
2021/09/27 14:26:04;;;;;;;;;;;;;;;;;;5116492;28;19963;-73
2021/09/27 14:28:31;;;;;;;;;;;;;;;;;;5116486;28;19924;-73
2021/09/27 14:30:57;;;;;;;;;;;;;;;;;;5116420;28;19978;-73
2021/09/27 14:33:26;;;;;;;;;;;;;;;;;;5116275;28;20475;-72
2021/09/27 14:35:52;;;;;;;;;;;;;;;;;;5116003;28;19934;-72
2021/09/27 14:38:19;;;;;;;;;;;;;;;;;;5116617;28;19923;-73
2021/09/27 14:40:45;;;;;;;;;;;;;;;;;;5116095;28;20369;-74
2021/09/27 14:43:11;;;;;;;;;;;;;;;;;;5116315;28;19923;-72
2021/09/27 14:45:38;;;;;;;;;;;;;;;;;;5116261;28;19924;-73
2021/09/27 14:48:04;;;;;;;;;;;;;;;;;;5116171;28;19931;-72
2021/09/27 14:50:30;;;;;;;;;;;;;;;;;;5116081;28;19923;-72
2021/09/27 14:52:57;;;;;;;;;;;;;;;;;;5115914;28;19936;-72
2021/09/27 14:55:23;;;;;;;;;;;;;;;;;;5115842;28;20382;-72
2021/09/27 14:57:49;;;;;;;;;;;;;;;;;;5115932;28;19924;-73
2021/09/27 15:00:15;;;;;;;;;;;;;;;;;;5116072;28;19924;-72
2021/09/27 15:02:42;;;;;;;;;;;;;;;;;;5115825;28;19923;-72
2021/09/27 15:05:08;;;;;;;;;;;;;;;;;;5115766;28;19931;-73
2021/09/27 15:07:34;;;;;;;;;;;;;;;;;;5116015;28;19924;-73
2021/09/27 15:10:01;;;;;;;;;;;;;;;;;;5115676;28;19928;-73
2021/09/27 15:12:27;;;;;;;;;;;;;;;;;;5115626;28;20370;-74
2021/09/27 15:14:53;;;;;;;;;;;;;;;;;;5115286;28;19928;-73
2021/09/27 15:17:20;;;;;;;;;;;;;;;;;;5115860;28;19930;-73
2021/09/27 15:19:46;;;;;;;;;;;;;;;;;;5115500;28;20321;-73
2021/09/27 15:22:12;;;;;;;;;;;;;;;;;;5115256;28;19931;-73
2021/09/27 15:24:39;;;;;;;;;;;;;;;;;;5115271;28;19923;-73
2021/09/27 15:27:05;;;;;;;;;;;;;;;;;;5115658;28;19931;-74
2021/09/27 15:29:31;;;;;;;;;;;;;;;;;;5115315;28;19924;-73
2021/09/27 15:31:58;;;;;;;;;;;;;;;;;;5115168;28;19923;-73
2021/09/27 15:34:24;;;;;;;;;;;;;;;;;;5114279;28;20296;-74
2021/09/27 15:36:50;;;;;;;;;;;;;;;;;;5114872;28;19924;-73
2021/09/27 15:39:17;;;;;;;;;;;;;;;;;;5115263;28;19997;-73
2021/09/27 15:41:43;;;;;;;;;;;;;;;;;;5114763;28;20278;-73
2021/09/27 15:44:09;;;;;;;;;;;;;;;;;;5115498;28;19924;-74
2021/09/27 15:46:36;;;;;;;;;;;;;;;;;;5115545;28;19923;-73
2021/09/27 15:49:02;;;;;;;;;;;;;;;;;;5114565;28;20502;-74
2021/09/27 15:51:28;;;;;;;;;;;;;;;;;;5114708;28;19924;-74
2021/09/27 15:53:54;;;;;;;;;;;;;;;;;;5115082;28;19947;-74
2021/09/27 15:56:21;;;;;;;;;;;;;;;;;;5114772;28;20390;-73
2021/09/27 15:58:47;;;;;;;;;;;;;;;;;;5114307;28;19924;-73
2021/09/27 16:01:13;;;;;;;;;;;;;;;;;;5114868;28;19931;-73
2021/09/27 16:03:40;;;;;;;;;;;;;;;;;;5114352;28;19923;-73
2021/09/27 16:06:06;;;;;;;;;;;;;;;;;;5115080;28;19923;-74
2021/09/27 16:08:32;;;;;;;;;;;;;;;;;;5114390;28;20274;-74
2021/09/27 16:10:59;;;;;;;;;;;;;;;;;;5114254;28;19927;-74
2021/09/27 16:13:25;;;;;;;;;;;;;;;;;;5114722;28;19923;-74
2021/09/27 16:15:51;;;;;;;;;;;;;;;;;;5114120;28;19924;-74
2021/09/27 16:18:17;;;;;;;;;;;;;;;;;;5114347;28;19923;-74
2021/09/27 16:20:44;;;;;;;;;;;;;;;;;;5114416;28;19928;-73
2021/09/27 16:23:11;;;;;;;;;;;;;;;;;;5114049;28;20293;-73
2021/09/27 16:25:38;;;;;;;;;;;;;;;;;;5114134;28;19924;-73
2021/09/27 16:28:04;;;;;;;;;;;;;;;;;;5114520;28;19927;-74
2021/09/27 16:30:30;;;;;;;;;;;;;;;;;;5114302;28;20396;-73
2021/09/27 16:32:58;;;;;;;;;;;;;;;;;;5113732;28;19924;-73
2021/09/27 16:35:24;;;;;;;;;;;;;;;;;;5115114;28;19931;-73
2021/09/27 16:37:51;;;;;;;;;;;;;;;;;;5120444;28;19924;-72
2021/09/27 16:40:17;;;;;;;;;;;;;;;;;;5127070;28;20305;-72